createdAt,value
2023-04-05T00:00:13.481Z,6.96
2023-04-05T00:02:45.408Z,6.91
2023-04-05T00:05:14.829Z,6.86
2023-04-05T00:07:48.285Z,6.92
2023-04-05T00:10:17.784Z,6.96
2023-04-05T00:12:47.075Z,6.98
2023-04-05T00:15:16.542Z,6.95
2023-04-05T00:17:48.489Z,6.94
2023-04-05T00:20:17.788Z,6.90
2023-04-05T00:22:47.408Z,6.91
2023-04-05T00:25:16.656Z,6.94
2023-04-05T00:27:45.957Z,6.97
2023-04-05T00:30:20.870Z,6.94
2023-04-05T00:32:53.110Z,6.93
2023-04-05T00:35:22.884Z,6.89
2023-04-05T00:37:52.157Z,6.90
2023-04-05T00:40:21.734Z,6.90
2023-04-05T00:42:51.081Z,6.89
2023-04-05T00:45:20.590Z,6.87
2023-04-05T00:47:49.973Z,6.86
2023-04-05T00:50:22.014Z,6.89
2023-04-05T00:52:51.430Z,6.90
2023-04-05T00:55:20.818Z,6.84
2023-04-05T00:57:50.176Z,6.82
2023-04-05T01:00:19.685Z,6.72
2023-04-05T01:02:52.438Z,6.73
2023-04-05T01:05:28.785Z,6.79
2023-04-05T01:08:00.550Z,6.78
2023-04-05T01:10:30.998Z,6.80
2023-04-05T01:13:00.293Z,6.78
2023-04-05T01:15:29.630Z,6.73
2023-04-05T01:18:02.287Z,6.70
2023-04-05T01:20:34.692Z,6.66
2023-04-05T01:23:16.441Z,6.67
2023-04-05T01:26:00.883Z,6.61
2023-04-05T01:28:37.983Z,6.58
2023-04-05T01:31:10.881Z,6.54
2023-04-05T01:33:42.461Z,6.50
2023-04-05T01:36:13.878Z,6.49
2023-04-05T01:38:43.332Z,6.45
2023-04-05T01:41:12.598Z,6.34
2023-04-05T01:43:41.962Z,6.37
2023-04-05T01:46:13.860Z,6.33
2023-04-05T01:48:43.185Z,6.30
2023-04-05T01:51:12.548Z,6.27
2023-04-05T01:53:42.155Z,6.18
2023-04-05T01:56:11.449Z,6.12
2023-04-05T01:58:41.428Z,6.04
2023-04-05T02:01:10.740Z,5.98
2023-04-05T02:03:42.836Z,5.95
2023-04-05T02:06:12.232Z,5.89
2023-04-05T02:08:41.582Z,5.81
2023-04-05T02:11:11.337Z,5.72
2023-04-05T02:13:40.628Z,5.68
2023-04-05T02:16:09.924Z,5.70
2023-04-05T02:18:41.997Z,5.78
2023-04-05T02:21:11.694Z,5.84
2023-04-05T02:23:41.025Z,5.85
2023-04-05T02:26:10.469Z,5.80
2023-04-05T02:28:39.809Z,5.79
2023-04-05T02:31:11.648Z,5.82
2023-04-05T02:33:43.520Z,5.85
2023-04-05T02:36:13.547Z,5.81
2023-04-05T02:38:42.839Z,5.78
2023-04-05T02:41:12.667Z,5.75
2023-04-05T02:43:41.969Z,5.72
2023-04-05T02:46:11.258Z,5.69
2023-04-05T02:48:43.520Z,5.70
2023-04-05T02:51:12.800Z,5.68
2023-04-05T02:53:42.585Z,5.64
2023-04-05T02:56:11.850Z,5.58
2023-04-05T02:58:41.176Z,5.58
2023-04-05T03:01:10.500Z,5.53
2023-04-05T03:03:40.869Z,5.53
2023-04-05T03:06:13.527Z,5.54
2023-04-05T03:08:44.305Z,5.54
2023-04-05T03:11:13.676Z,5.55
2023-04-05T03:13:43.016Z,5.50
2023-04-05T03:16:12.868Z,5.32
2023-04-05T03:18:42.164Z,5.14
2023-04-05T03:21:14.217Z,4.99
2023-04-05T03:23:43.532Z,4.89
2023-04-05T03:26:13.256Z,4.82
2023-04-05T03:28:45.379Z,4.72
2023-04-05T03:31:14.803Z,4.69
2023-04-05T03:33:44.132Z,4.74
2023-04-05T03:36:16.738Z,4.80
2023-04-05T03:38:47.001Z,4.85
2023-04-05T03:41:16.422Z,4.87
2023-04-05T03:43:45.758Z,4.89
2023-04-05T03:46:15.072Z,4.94
2023-04-05T03:48:44.357Z,4.99
2023-04-05T03:51:16.708Z,4.97
2023-04-05T03:53:46.216Z,4.94
2023-04-05T03:56:15.917Z,4.95
2023-04-05T03:58:45.166Z,4.98
2023-04-05T04:01:14.851Z,5.01
2023-04-05T04:03:44.140Z,5.02
2023-04-05T04:06:18.648Z,4.96
2023-04-05T04:08:48.605Z,4.96
2023-04-05T04:11:17.930Z,4.95
2023-04-05T04:13:47.202Z,4.92
2023-04-05T04:16:18.235Z,4.88
2023-04-05T04:18:47.572Z,4.82
2023-04-05T04:21:19.433Z,4.80
2023-04-05T04:23:50.277Z,4.81
2023-04-05T04:26:29.160Z,4.82
2023-04-05T04:28:58.607Z,4.82
2023-04-05T04:31:27.893Z,4.80
2023-04-05T04:33:57.150Z,4.81
2023-04-05T04:36:39.418Z,4.82
2023-04-05T04:39:09.049Z,4.80
2023-04-05T04:41:38.383Z,4.76
2023-04-05T04:44:07.754Z,4.79
2023-04-05T04:46:43.148Z,4.81
2023-04-05T04:49:13.475Z,4.79
2023-04-05T04:51:45.407Z,4.77
2023-04-05T04:54:16.959Z,4.81
2023-04-05T04:56:46.229Z,4.78
2023-04-05T04:59:16.316Z,4.77
2023-04-05T05:01:47.670Z,4.76
2023-04-05T05:04:16.994Z,4.75
2023-04-05T05:06:48.912Z,4.76
2023-04-05T05:09:18.181Z,4.82
2023-04-05T05:11:47.437Z,4.94
2023-04-05T05:14:16.730Z,5.04
2023-04-05T05:16:46.119Z,5.09
2023-04-05T05:19:15.448Z,5.22
2023-04-05T05:21:44.720Z,5.36
2023-04-05T05:24:16.846Z,5.48
2023-04-05T05:26:46.174Z,5.62
2023-04-05T05:29:15.609Z,5.71
2023-04-05T05:31:45.233Z,5.89
2023-04-05T05:34:14.536Z,6.01
2023-04-05T05:36:44.084Z,6.16
2023-04-05T05:39:16.103Z,6.32
2023-04-05T05:41:45.512Z,6.45
2023-04-05T05:44:14.976Z,6.63
2023-04-05T05:46:44.282Z,6.79
2023-04-05T05:49:13.580Z,6.95
2023-04-05T05:51:42.881Z,7.06
2023-04-05T05:54:12.174Z,7.22
2023-04-05T05:56:44.066Z,7.36
2023-04-05T05:59:13.416Z,7.56
2023-04-05T06:01:46.636Z,7.71
2023-04-05T06:04:16.696Z,7.87
2023-04-05T06:06:47.883Z,8.18
2023-04-05T06:09:17.425Z,8.45
2023-04-05T06:11:56.433Z,8.64
2023-04-05T06:14:27.206Z,8.80
2023-04-05T06:16:56.729Z,8.65
2023-04-05T06:19:26.049Z,8.34
2023-04-05T06:21:55.502Z,8.68
2023-04-05T06:24:24.795Z,8.98
2023-04-05T06:26:56.954Z,9.25
2023-04-05T06:29:26.301Z,8.52
2023-04-05T06:31:55.753Z,8.51
2023-04-05T06:34:25.078Z,8.98
2023-04-05T06:36:56.017Z,9.46
2023-04-05T06:39:25.280Z,9.77
2023-04-05T06:41:57.914Z,10.20
2023-04-05T06:44:27.306Z,10.53
2023-04-05T06:46:56.589Z,10.73
2023-04-05T06:49:25.996Z,10.73
2023-04-05T06:51:55.273Z,10.86
2023-04-05T06:54:25.121Z,10.94
2023-04-05T06:56:57.747Z,10.94
2023-04-05T06:59:27.828Z,11.64
2023-04-05T07:01:57.116Z,11.71
2023-04-05T07:04:26.849Z,11.76
2023-04-05T07:06:56.865Z,11.64
2023-04-05T07:09:28.858Z,11.62
2023-04-05T07:12:01.682Z,11.82
2023-04-05T07:14:32.800Z,12.27
2023-04-05T07:17:02.105Z,12.33
2023-04-05T07:19:31.615Z,12.16
2023-04-05T07:22:01.790Z,12.62
2023-04-05T07:24:31.124Z,12.84
2023-04-05T07:27:03.232Z,13.12
2023-04-05T07:29:32.884Z,13.43
2023-04-05T07:32:02.251Z,14.04
2023-04-05T07:34:31.522Z,14.45
2023-04-05T07:37:00.789Z,14.93
2023-04-05T07:39:30.227Z,15.51
2023-04-05T07:41:59.513Z,16.49
2023-04-05T07:44:31.410Z,17.39
2023-04-05T07:47:00.817Z,18.60
2023-04-05T07:49:30.728Z,20.28
2023-04-05T07:52:00.023Z,21.57
2023-04-05T07:54:29.471Z,22.60
2023-04-05T07:56:58.788Z,23.33
2023-04-05T07:59:28.124Z,23.65
2023-04-05T08:02:05.039Z,24.21
2023-04-05T08:04:41.575Z,24.11
2023-04-05T08:07:10.886Z,23.60
2023-04-05T08:09:40.169Z,24.14
2023-04-05T08:12:11.549Z,24.44
2023-04-05T08:14:40.955Z,24.73
2023-04-05T08:17:12.827Z,24.10
2023-04-05T08:19:42.109Z,22.81
2023-04-05T08:22:11.457Z,24.01
2023-04-05T08:24:40.825Z,25.03
2023-04-05T08:27:10.112Z,25.14
2023-04-05T08:29:39.410Z,24.61
2023-04-05T08:32:09.234Z,24.50
2023-04-05T08:34:41.229Z,23.71
2023-04-05T08:37:10.500Z,24.79
2023-04-05T08:39:39.756Z,25.99
2023-04-05T08:42:11.858Z,25.03
2023-04-05T08:44:41.431Z,25.68
2023-04-05T08:47:15.328Z,25.45
2023-04-05T08:49:49.053Z,23.48
2023-04-05T08:52:18.322Z,24.83
2023-04-05T08:54:49.635Z,22.71
2023-04-05T08:57:20.089Z,23.91
2023-04-05T08:59:49.868Z,23.75
2023-04-05T09:02:21.231Z,24.31
2023-04-05T09:04:53.073Z,23.79
2023-04-05T09:07:22.748Z,24.74
2023-04-05T09:09:53.058Z,24.16
2023-04-05T09:12:23.152Z,23.26
2023-04-05T09:14:52.461Z,23.71
2023-04-05T09:17:21.809Z,22.47
2023-04-05T09:19:53.678Z,20.94
2023-04-05T09:22:22.953Z,19.93
2023-04-05T09:24:52.253Z,17.38
2023-04-05T09:27:21.830Z,16.73
2023-04-05T09:29:51.332Z,15.59
2023-04-05T09:32:21.553Z,16.59
2023-04-05T09:34:54.086Z,17.25
2023-04-05T09:37:23.997Z,16.09
2023-04-05T09:39:53.487Z,15.82
2023-04-05T09:42:23.569Z,16.56
2023-04-05T09:44:56.148Z,16.44
2023-04-05T09:47:25.958Z,16.69
2023-04-05T09:49:57.821Z,16.03
2023-04-05T09:52:27.757Z,15.06
2023-04-05T09:54:58.294Z,15.21
2023-04-05T09:57:29.676Z,16.00
2023-04-05T09:59:58.970Z,16.16
2023-04-05T10:02:28.397Z,16.45
2023-04-05T10:05:00.383Z,16.46
2023-04-05T10:07:29.654Z,16.60
2023-04-05T10:09:58.968Z,17.84
2023-04-05T10:12:29.635Z,19.29
2023-04-05T10:14:59.448Z,20.10
2023-04-05T10:17:30.437Z,21.66
2023-04-05T10:20:05.289Z,18.57
2023-04-05T10:22:36.665Z,19.15
2023-04-05T10:25:08.040Z,19.14
2023-04-05T10:27:38.302Z,17.89
2023-04-05T10:30:09.214Z,16.55
2023-04-05T10:32:44.884Z,16.26
2023-04-05T10:35:19.047Z,15.26
2023-04-05T10:37:52.827Z,14.12
2023-04-05T10:40:22.285Z,14.74
2023-04-05T10:42:51.635Z,13.71
2023-04-05T10:45:23.324Z,12.82
2023-04-05T10:47:53.407Z,12.74
2023-04-05T10:50:25.985Z,13.14
2023-04-05T10:52:55.371Z,14.40
2023-04-05T10:55:24.936Z,14.37
2023-04-05T10:57:54.212Z,14.87
2023-04-05T11:00:23.787Z,15.25
2023-04-05T11:02:56.592Z,15.38
2023-04-05T11:05:35.883Z,15.82
2023-04-05T11:08:08.873Z,15.96
2023-04-05T11:10:38.992Z,16.76
2023-04-05T11:13:09.083Z,16.41
2023-04-05T11:15:38.476Z,15.86
2023-04-05T11:18:08.792Z,15.25
2023-04-05T11:20:45.196Z,15.00
2023-04-05T11:23:14.954Z,15.79
2023-04-05T11:25:44.219Z,15.77
2023-04-05T11:28:13.470Z,16.62
2023-04-05T11:30:49.211Z,16.91
2023-04-05T11:33:33.381Z,16.26
2023-04-05T11:36:07.113Z,14.24
2023-04-05T11:38:36.397Z,13.72
2023-04-05T11:41:08.166Z,14.92
2023-04-05T11:43:38.501Z,16.05
2023-04-05T11:46:08.010Z,15.50
2023-04-05T11:48:37.324Z,14.64
2023-04-05T11:51:12.490Z,14.75
2023-04-05T11:53:41.884Z,14.74
2023-04-05T11:56:13.908Z,14.08
2023-04-05T11:58:43.177Z,14.61
2023-04-05T12:01:12.438Z,14.96
2023-04-05T12:03:41.815Z,14.64
2023-04-05T12:06:13.729Z,15.02
2023-04-05T12:08:43.509Z,14.87
2023-04-05T12:11:13.490Z,14.85
2023-04-05T12:13:42.934Z,14.33
2023-04-05T12:16:12.219Z,15.30
2023-04-05T12:18:41.492Z,15.77
2023-04-05T12:21:13.544Z,15.62
2023-04-05T12:23:42.878Z,16.32
2023-04-05T12:26:12.147Z,16.62
2023-04-05T12:28:54.323Z,16.97
2023-04-05T12:31:44.502Z,17.15
2023-04-05T12:34:14.132Z,16.62
2023-04-05T12:36:48.841Z,15.12
2023-04-05T12:39:18.872Z,14.98
2023-04-05T12:41:48.165Z,14.77
2023-04-05T12:44:17.723Z,14.79
2023-04-05T12:46:47.903Z,15.54
2023-04-05T12:49:17.767Z,15.52
2023-04-05T12:51:49.824Z,15.98
2023-04-05T12:54:23.281Z,16.25
2023-04-05T12:56:53.076Z,14.69
2023-04-05T12:59:22.423Z,14.97
2023-04-05T13:01:51.893Z,15.73
2023-04-05T13:04:23.264Z,15.32
2023-04-05T13:06:55.819Z,14.43
2023-04-05T13:09:25.098Z,14.78
2023-04-05T13:11:54.420Z,15.07
2023-04-05T13:14:23.701Z,14.18
2023-04-05T13:16:52.975Z,13.89
2023-04-05T13:19:22.251Z,14.97
2023-04-05T13:21:51.538Z,15.58
2023-04-05T13:24:23.361Z,15.98
2023-04-05T13:26:52.645Z,16.44
2023-04-05T13:29:21.902Z,15.64
2023-04-05T13:31:51.204Z,15.36
2023-04-05T13:34:20.621Z,15.09
2023-04-05T13:36:50.023Z,13.83
2023-04-05T13:39:19.374Z,14.11
2023-04-05T13:41:51.218Z,14.84
2023-04-05T13:44:20.475Z,15.12
2023-04-05T13:46:49.871Z,14.78
2023-04-05T13:49:19.176Z,14.40
2023-04-05T13:51:48.441Z,14.64
2023-04-05T13:54:19.145Z,14.64
2023-04-05T13:56:51.008Z,14.68
2023-04-05T13:59:20.660Z,14.80
2023-04-05T14:01:50.076Z,14.31
2023-04-05T14:04:19.539Z,14.19
2023-04-05T14:06:48.957Z,13.91
2023-04-05T14:09:18.224Z,13.94
2023-04-05T14:11:47.577Z,13.68
2023-04-05T14:14:19.467Z,13.67
2023-04-05T14:16:48.762Z,13.83
2023-04-05T14:19:19.767Z,14.01
2023-04-05T14:21:50.550Z,13.82
2023-04-05T14:24:19.830Z,13.12
2023-04-05T14:26:49.967Z,14.21
2023-04-05T14:29:21.898Z,14.89
2023-04-05T14:31:51.234Z,14.11
2023-04-05T14:34:20.714Z,14.17
2023-04-05T14:36:50.029Z,14.69
2023-04-05T14:39:19.612Z,13.73
2023-04-05T14:41:52.602Z,12.98
2023-04-05T14:44:25.949Z,12.71
2023-04-05T14:46:55.602Z,12.99
2023-04-05T14:49:24.901Z,12.72
2023-04-05T14:51:54.189Z,12.97
2023-04-05T14:54:23.473Z,13.23
2023-04-05T14:56:52.744Z,13.06
2023-04-05T14:59:25.701Z,13.37
2023-04-05T15:01:55.035Z,13.47
2023-04-05T15:04:24.314Z,13.44
2023-04-05T15:06:53.590Z,13.48
2023-04-05T15:09:22.887Z,12.83
2023-04-05T15:11:54.428Z,12.37
2023-04-05T15:14:32.062Z,12.45
2023-04-05T15:17:01.715Z,13.18
2023-04-05T15:19:31.186Z,13.74
2023-04-05T15:22:00.511Z,14.18
2023-04-05T15:24:30.064Z,14.71
2023-04-05T15:27:02.503Z,14.30
2023-04-05T15:29:34.709Z,13.37
2023-04-05T15:32:04.110Z,13.67
2023-04-05T15:34:34.352Z,13.89
2023-04-05T15:37:03.678Z,14.38
2023-04-05T15:39:32.987Z,14.26
2023-04-05T15:42:03.117Z,13.61
2023-04-05T15:44:34.977Z,12.99
2023-04-05T15:47:04.258Z,12.99
2023-04-05T15:49:33.526Z,13.79
2023-04-05T15:52:02.991Z,13.95
2023-04-05T15:54:32.289Z,12.97
2023-04-05T15:57:01.973Z,13.14
2023-04-05T15:59:31.312Z,13.16
2023-04-05T16:02:03.330Z,13.42
2023-04-05T16:04:32.693Z,13.68
2023-04-05T16:07:01.992Z,13.80
2023-04-05T16:09:31.278Z,13.76
2023-04-05T16:12:00.677Z,13.66
2023-04-05T16:14:30.187Z,13.65
2023-04-05T16:16:59.528Z,13.49
2023-04-05T16:19:31.654Z,13.33
2023-04-05T16:22:03.092Z,13.49
2023-04-05T16:24:33.337Z,13.69
2023-04-05T16:27:02.781Z,12.85
2023-04-05T16:29:32.382Z,13.15
2023-04-05T16:32:01.720Z,13.35
2023-04-05T16:34:33.438Z,13.22
2023-04-05T16:37:05.548Z,12.75
2023-04-05T16:39:34.883Z,12.58
2023-04-05T16:42:04.647Z,12.22
2023-04-05T16:44:33.920Z,11.86
2023-04-05T16:47:03.249Z,11.97
2023-04-05T16:49:32.538Z,11.79
2023-04-05T16:52:01.903Z,11.72
2023-04-05T16:54:34.298Z,11.90
2023-04-05T16:57:03.566Z,12.08
2023-04-05T16:59:32.980Z,12.06
2023-04-05T17:02:02.448Z,12.05
2023-04-05T17:04:32.545Z,12.20
2023-04-05T17:07:01.894Z,12.32
2023-04-05T17:09:33.757Z,12.48
2023-04-05T17:12:04.177Z,12.47
2023-04-05T17:14:33.505Z,11.86
2023-04-05T17:17:02.771Z,11.85
2023-04-05T17:19:32.172Z,11.95
2023-04-05T17:22:01.454Z,11.91
2023-04-05T17:24:36.304Z,12.14
2023-04-05T17:27:08.246Z,12.04
2023-04-05T17:29:37.612Z,11.71
2023-04-05T17:32:06.889Z,11.79
2023-04-05T17:34:36.258Z,12.02
2023-04-05T17:37:05.576Z,12.17
2023-04-05T17:39:34.894Z,12.13
2023-04-05T17:42:04.156Z,11.71
2023-04-05T17:44:36.122Z,11.43
2023-04-05T17:47:09.076Z,11.50
2023-04-05T17:49:39.164Z,11.67
2023-04-05T17:52:08.944Z,11.85
2023-04-05T17:54:39.412Z,12.05
2023-04-05T17:57:15.295Z,12.28
2023-04-05T17:59:47.575Z,12.41
2023-04-05T18:02:17.041Z,12.44
2023-04-05T18:04:46.547Z,12.43
2023-04-05T18:07:15.900Z,12.43
2023-04-05T18:09:45.346Z,12.39
2023-04-05T18:12:18.282Z,12.37
2023-04-05T18:14:50.553Z,12.32
2023-04-05T18:17:20.277Z,12.28
2023-04-05T18:19:50.289Z,12.25
2023-04-05T18:22:19.551Z,12.21
2023-04-05T18:24:48.900Z,12.16
2023-04-05T18:27:18.173Z,12.16
2023-04-05T18:29:50.299Z,12.15
2023-04-05T18:32:19.730Z,12.08
2023-04-05T18:34:49.189Z,11.97
2023-04-05T18:37:18.459Z,11.88
2023-04-05T18:39:47.749Z,11.84
2023-04-05T18:42:17.098Z,11.79
2023-04-05T18:44:46.364Z,11.81
2023-04-05T18:47:18.220Z,11.72
2023-04-05T18:49:47.500Z,11.70
2023-04-05T18:52:22.049Z,11.64
2023-04-05T18:54:51.352Z,11.52
2023-04-05T18:57:20.753Z,11.51
2023-04-05T18:59:50.042Z,11.36
2023-04-05T19:02:21.945Z,11.26
2023-04-05T19:04:51.731Z,11.23
2023-04-05T19:07:22.014Z,11.24
2023-04-05T19:09:51.286Z,11.22
2023-04-05T19:12:20.550Z,11.21
2023-04-05T19:14:49.827Z,11.21
2023-04-05T19:17:19.090Z,11.23
2023-04-05T19:19:51.343Z,11.18
2023-04-05T19:22:20.645Z,11.13
2023-04-05T19:24:49.933Z,11.07
2023-04-05T19:27:19.208Z,10.99
2023-04-05T19:29:48.475Z,10.96
2023-04-05T19:32:17.878Z,10.91
2023-04-05T19:34:47.150Z,10.89
2023-04-05T19:37:19.018Z,10.85
2023-04-05T19:39:48.484Z,10.78
2023-04-05T19:42:17.817Z,10.74
2023-04-05T19:44:52.376Z,10.71
2023-04-05T19:47:22.507Z,10.68
2023-04-05T19:49:53.822Z,10.56
2023-04-05T19:52:42.571Z,10.51
2023-04-05T19:55:30.071Z,10.47
2023-04-05T19:57:59.850Z,10.46
2023-04-05T20:00:34.275Z,10.39
2023-04-05T20:03:04.255Z,10.37
2023-04-05T20:05:59.301Z,10.33
2023-04-05T20:08:31.766Z,10.30
2023-04-05T20:11:01.284Z,10.16
2023-04-05T20:13:30.802Z,10.04
2023-04-05T20:16:00.353Z,10.00
2023-04-05T20:18:30.085Z,10.03
2023-04-05T20:20:59.633Z,10.00
2023-04-05T20:23:31.752Z,10.01
2023-04-05T20:26:01.079Z,9.98
2023-04-05T20:28:31.141Z,9.97
2023-04-05T20:31:00.521Z,9.97
2023-04-05T20:33:36.690Z,9.98
2023-04-05T20:36:10.861Z,9.93
2023-04-05T20:38:43.408Z,9.89
2023-04-05T20:41:12.928Z,9.81
2023-04-05T20:43:42.425Z,9.78
2023-04-05T20:46:12.960Z,9.76
2023-04-05T20:48:42.348Z,9.64
2023-04-05T20:51:11.833Z,9.58
2023-04-05T20:53:43.706Z,9.51
2023-04-05T20:56:13.125Z,9.50
2023-04-05T20:58:42.924Z,9.50
2023-04-05T21:01:12.275Z,9.47
2023-04-05T21:03:42.393Z,9.49
2023-04-05T21:06:12.025Z,9.51
2023-04-05T21:08:43.982Z,9.51
2023-04-05T21:11:13.596Z,9.45
2023-04-05T21:13:43.550Z,9.44
2023-04-05T21:16:13.203Z,9.44
2023-04-05T21:18:42.458Z,9.42
2023-04-05T21:21:11.746Z,9.42
2023-04-05T21:23:41.038Z,9.36
2023-04-05T21:26:12.882Z,9.30
2023-04-05T21:28:42.137Z,9.27
2023-04-05T21:31:11.762Z,9.23
2023-04-05T21:33:41.703Z,9.16
2023-04-05T21:36:11.166Z,9.13
2023-04-05T21:38:40.410Z,9.10
2023-04-05T21:41:09.695Z,9.06
2023-04-05T21:43:41.549Z,9.05
2023-04-05T21:46:12.082Z,9.02
2023-04-05T21:48:41.367Z,9.00
2023-04-05T21:51:10.633Z,8.99
2023-04-05T21:53:39.886Z,8.96
2023-04-05T21:56:09.270Z,8.96
2023-04-05T21:58:42.357Z,8.90
2023-04-05T22:01:11.690Z,8.85
2023-04-05T22:03:41.035Z,8.84
2023-04-05T22:06:10.615Z,8.83
2023-04-05T22:08:39.890Z,8.79
2023-04-05T22:11:09.289Z,8.79
2023-04-05T22:13:41.409Z,8.77
2023-04-05T22:16:10.886Z,8.69
2023-04-05T22:18:40.183Z,8.61
2023-04-05T22:21:09.442Z,8.46
2023-04-05T22:23:39.610Z,8.37
2023-04-05T22:26:10.308Z,8.32
2023-04-05T22:28:42.162Z,8.31
2023-04-05T22:31:11.418Z,8.31
2023-04-05T22:33:40.685Z,8.31
2023-04-05T22:36:10.670Z,8.25
2023-04-05T22:38:39.932Z,8.27
2023-04-05T22:41:09.194Z,8.18
2023-04-05T22:43:38.530Z,8.09
2023-04-05T22:46:10.624Z,8.08
2023-04-05T22:48:39.970Z,8.09
2023-04-05T22:51:09.260Z,8.04
2023-04-05T22:53:38.541Z,8.06
2023-04-05T22:56:08.155Z,8.05
2023-04-05T22:58:37.461Z,7.96
2023-04-05T23:01:06.967Z,7.90
2023-04-05T23:03:38.850Z,7.82
2023-04-05T23:06:08.305Z,7.75
2023-04-05T23:08:37.827Z,7.70
2023-04-05T23:11:07.386Z,7.66
2023-04-05T23:13:36.730Z,7.62
2023-04-05T23:16:06.595Z,7.59
2023-04-05T23:18:35.905Z,7.60
2023-04-05T23:21:07.835Z,7.57
2023-04-05T23:23:37.631Z,7.57
2023-04-05T23:26:07.120Z,7.55
2023-04-05T23:28:36.417Z,7.51
2023-04-05T23:31:05.861Z,7.47
2023-04-05T23:33:36.036Z,7.45
2023-04-05T23:36:08.344Z,7.45
2023-04-05T23:38:37.708Z,7.48
2023-04-05T23:41:07.248Z,7.51
2023-04-05T23:43:36.797Z,7.55
2023-04-05T23:46:07.006Z,7.54
2023-04-05T23:48:36.515Z,7.54
2023-04-05T23:51:08.478Z,7.47
2023-04-05T23:53:37.866Z,7.43
2023-04-05T23:56:07.519Z,7.36
2023-04-05T23:58:36.808Z,7.30
